createdAt,value
2018-04-27T00:01:53.011Z,21.20
2018-04-27T00:04:19.235Z,23.07
2018-04-27T00:06:45.454Z,23.50
2018-04-27T00:09:11.740Z,18.63
2018-04-27T00:11:37.926Z,23.00
2018-04-27T00:14:04.169Z,23.73
2018-04-27T00:16:30.365Z,26.23
2018-04-27T00:18:56.582Z,29.70
2018-04-27T00:21:22.779Z,21.10
2018-04-27T00:23:48.995Z,20.87
2018-04-27T00:26:15.190Z,20.60
2018-04-27T00:28:41.407Z,22.07
2018-04-27T00:31:07.598Z,24.50
2018-04-27T00:33:33.819Z,24.67
2018-04-27T00:36:00.036Z,22.73
2018-04-27T00:38:26.246Z,21.60
2018-04-27T00:40:52.444Z,22.47
2018-04-27T00:43:18.663Z,23.33
2018-04-27T00:45:45.594Z,24.83
2018-04-27T00:48:12.546Z,22.13
2018-04-27T00:50:39.487Z,33.40
2018-04-27T00:53:13.658Z,24.13
2018-04-27T00:55:39.876Z,26.20
2018-04-27T00:58:06.082Z,27.87
2018-04-27T01:00:32.327Z,26.27
2018-04-27T01:02:58.548Z,29.50
2018-04-27T01:05:24.738Z,33.00
2018-04-27T01:07:51.465Z,33.57
2018-04-27T01:10:18.711Z,26.73
2018-04-27T01:12:45.277Z,24.00
2018-04-27T01:15:11.667Z,35.83
2018-04-27T01:17:37.897Z,28.00
2018-04-27T01:20:04.108Z,28.93
2018-04-27T01:22:30.343Z,29.30
2018-04-27T01:24:56.878Z,32.63
2018-04-27T01:27:23.117Z,28.67
2018-04-27T01:29:49.324Z,29.10
2018-04-27T01:32:15.559Z,30.23
2018-04-27T01:34:41.763Z,31.40
2018-04-27T01:37:08.731Z,34.77
2018-04-27T01:39:35.176Z,27.20
2018-04-27T01:42:01.400Z,24.70
2018-04-27T01:44:27.597Z,35.63
2018-04-27T01:46:54.577Z,29.47
2018-04-27T01:49:20.779Z,28.93
2018-04-27T01:51:47.742Z,31.00
2018-04-27T01:54:13.939Z,26.10
2018-04-27T01:56:40.190Z,36.03
2018-04-27T01:59:06.382Z,31.83
2018-04-27T02:01:33.347Z,31.10
2018-04-27T02:04:00.317Z,34.27
2018-04-27T02:06:26.624Z,35.57
2018-04-27T02:08:52.778Z,36.53
2018-04-27T02:11:18.983Z,34.33
2018-04-27T02:13:45.959Z,37.20
2018-04-27T02:16:12.341Z,42.17
2018-04-27T02:18:39.320Z,30.40
2018-04-27T02:21:05.515Z,32.37
2018-04-27T02:23:31.730Z,42.10
2018-04-27T02:25:57.937Z,38.60
2018-04-27T02:28:24.159Z,36.30
2018-04-27T02:30:50.361Z,39.00
2018-04-27T02:33:17.323Z,42.20
2018-04-27T02:35:43.519Z,32.40
2018-04-27T02:38:10.475Z,32.70
2018-04-27T02:40:37.412Z,34.53
2018-04-27T02:43:04.371Z,35.70
2018-04-27T02:45:31.309Z,30.23
2018-04-27T02:47:58.271Z,43.00
2018-04-27T02:50:24.551Z,34.27
2018-04-27T02:52:50.731Z,37.07
2018-04-27T02:55:16.932Z,37.40
2018-04-27T02:57:44.367Z,37.37
2018-04-27T03:00:10.559Z,34.23
2018-04-27T03:02:36.783Z,36.07
2018-04-27T03:05:03.009Z,37.63
2018-04-27T03:07:29.223Z,35.20
2018-04-27T03:09:56.179Z,33.37
2018-04-27T03:12:22.471Z,42.50
2018-04-27T03:14:48.710Z,36.00
2018-04-27T03:17:14.935Z,31.70
2018-04-27T03:19:41.134Z,35.40
2018-04-27T03:22:07.414Z,41.40
2018-04-27T03:24:34.356Z,42.07
2018-04-27T03:27:01.331Z,35.83
2018-04-27T03:29:27.524Z,32.83
2018-04-27T03:31:54.486Z,43.90
2018-04-27T03:34:21.435Z,40.20
2018-04-27T03:36:47.657Z,33.27
2018-04-27T03:39:14.599Z,42.80
2018-04-27T03:41:41.572Z,38.77
2018-04-27T03:44:07.771Z,40.17
2018-04-27T03:46:34.808Z,42.70
2018-04-27T03:49:01.014Z,44.77
2018-04-27T03:51:27.239Z,45.90
2018-04-27T03:53:53.459Z,52.30
2018-04-27T03:56:19.677Z,34.47
2018-04-27T03:58:46.211Z,32.97
2018-04-27T04:01:24.852Z,36.30
2018-04-27T04:04:04.027Z,40.87
2018-04-27T04:06:30.995Z,35.07
2018-04-27T04:08:57.191Z,33.27
2018-04-27T04:11:23.452Z,40.53
2018-04-27T04:13:49.673Z,40.53
2018-04-27T04:16:15.903Z,43.43
2018-04-27T04:18:42.124Z,44.13
2018-04-27T04:21:16.031Z,43.67
2018-04-27T04:23:42.958Z,46.00
2018-04-27T04:26:09.282Z,41.30
2018-04-27T04:28:35.478Z,52.57
2018-04-27T04:31:01.712Z,38.73
2018-04-27T04:33:27.910Z,42.80
2018-04-27T04:35:54.139Z,43.70
2018-04-27T04:38:20.415Z,38.10
2018-04-27T04:40:46.590Z,47.83
2018-04-27T04:43:12.790Z,43.30
2018-04-27T04:45:39.018Z,36.23
2018-04-27T04:48:05.218Z,34.80
2018-04-27T04:50:31.474Z,36.47
2018-04-27T04:52:57.670Z,38.90
2018-04-27T04:55:23.895Z,39.43
2018-04-27T04:57:50.119Z,38.90
2018-04-27T05:00:16.336Z,34.30
2018-04-27T05:02:42.540Z,39.80
2018-04-27T05:05:09.508Z,42.33
2018-04-27T05:07:35.710Z,34.13
2018-04-27T05:10:02.676Z,32.33
2018-04-27T05:12:28.870Z,30.63
2018-04-27T05:14:55.099Z,29.57
2018-04-27T05:17:21.391Z,37.40
2018-04-27T05:19:54.681Z,35.47
2018-04-27T05:22:20.903Z,28.13
2018-04-27T05:24:47.090Z,31.53
2018-04-27T05:27:14.063Z,26.17
2018-04-27T05:29:40.307Z,27.70
2018-04-27T05:32:07.283Z,23.77
2018-04-27T05:34:33.466Z,28.57
2018-04-27T05:36:59.691Z,24.20
2018-04-27T05:39:25.891Z,23.87
2018-04-27T05:41:52.111Z,30.10
2018-04-27T05:44:18.311Z,18.27
2018-04-27T05:46:44.535Z,23.67
2018-04-27T05:49:10.799Z,20.07
2018-04-27T05:51:37.047Z,21.07
2018-04-27T05:54:04.047Z,21.90
2018-04-27T05:56:30.275Z,17.17
2018-04-27T05:58:56.459Z,23.00
2018-04-27T06:01:23.443Z,14.40
2018-04-27T06:04:01.995Z,17.10
2018-04-27T06:06:28.216Z,16.87
2018-04-27T06:08:54.783Z,12.20
2018-04-27T06:11:21.717Z,15.30
2018-04-27T06:13:47.970Z,16.40
2018-04-27T06:16:14.217Z,19.77
2018-04-27T06:18:40.443Z,12.53
2018-04-27T06:21:06.636Z,19.53
2018-04-27T06:23:32.859Z,14.80
2018-04-27T06:25:59.039Z,12.27
2018-04-27T06:28:25.306Z,15.57
2018-04-27T06:30:51.500Z,14.53
2018-04-27T06:33:17.722Z,12.17
2018-04-27T06:35:43.920Z,17.33
2018-04-27T06:38:10.190Z,15.27
2018-04-27T06:40:36.399Z,11.53
2018-04-27T06:43:02.615Z,12.83
2018-04-27T06:45:29.603Z,10.40
2018-04-27T06:47:55.859Z,11.13
2018-04-27T06:50:22.074Z,10.70
2018-04-27T06:52:48.299Z,10.40
2018-04-27T06:55:14.530Z,14.93
2018-04-27T06:57:40.774Z,18.33
2018-04-27T07:00:06.969Z,13.30
2018-04-27T07:02:33.224Z,17.07
2018-04-27T07:04:59.458Z,12.10
2018-04-27T07:07:25.699Z,10.70
2018-04-27T07:09:52.650Z,12.27
2018-04-27T07:12:18.880Z,11.83
2018-04-27T07:14:45.094Z,13.30
2018-04-27T07:17:12.153Z,9.10
2018-04-27T07:19:38.302Z,13.70
2018-04-27T07:22:05.265Z,10.97
2018-04-27T07:24:31.502Z,8.93
2018-04-27T07:26:57.738Z,22.40
2018-04-27T07:29:23.946Z,9.87
2018-04-27T07:31:50.914Z,12.30
2018-04-27T07:34:17.207Z,8.87
2018-04-27T07:36:43.377Z,11.73
2018-04-27T07:39:09.574Z,13.73
2018-04-27T07:41:36.554Z,14.27
2018-04-27T07:44:02.775Z,6.37
2018-04-27T07:46:29.036Z,7.10
2018-04-27T07:48:55.254Z,11.03
2018-04-27T07:51:21.523Z,10.10
2018-04-27T07:53:47.730Z,11.13
2018-04-27T07:56:13.983Z,12.13
2018-04-27T07:58:40.942Z,11.57
2018-04-27T08:01:07.911Z,9.83
2018-04-27T08:03:34.151Z,24.03
2018-04-27T08:06:00.361Z,10.23
2018-04-27T08:08:26.654Z,8.80
2018-04-27T08:10:52.887Z,14.37
2018-04-27T08:13:19.140Z,10.23
2018-04-27T08:15:46.102Z,14.13
2018-04-27T08:18:12.391Z,11.93
2018-04-27T08:20:38.640Z,11.73
2018-04-27T08:23:05.634Z,14.50
2018-04-27T08:25:31.868Z,5.87
2018-04-27T08:27:58.119Z,10.33
2018-04-27T08:30:24.390Z,6.43
2018-04-27T08:32:50.623Z,10.03
2018-04-27T08:35:16.835Z,15.70
2018-04-27T08:37:43.799Z,8.80
2018-04-27T08:40:10.054Z,9.80
2018-04-27T08:42:36.263Z,9.50
2018-04-27T08:45:02.500Z,18.47
2018-04-27T08:47:28.759Z,8.73
2018-04-27T08:49:54.959Z,13.40
2018-04-27T08:52:21.207Z,9.27
2018-04-27T08:54:47.511Z,16.07
2018-04-27T08:57:13.747Z,11.70
2018-04-27T08:59:40.290Z,9.97
2018-04-27T09:02:06.527Z,13.23
2018-04-27T09:04:32.747Z,10.20
2018-04-27T09:06:58.963Z,9.63
2018-04-27T09:09:25.167Z,9.03
2018-04-27T09:11:52.135Z,13.67
2018-04-27T09:14:18.326Z,13.10
2018-04-27T09:16:44.544Z,6.20
2018-04-27T09:19:10.747Z,15.40
2018-04-27T09:21:37.011Z,6.83
2018-04-27T09:24:03.209Z,11.17
2018-04-27T09:26:29.399Z,8.30
2018-04-27T09:28:56.359Z,11.10
2018-04-27T09:31:22.555Z,13.70
2018-04-27T09:33:49.523Z,9.47
2018-04-27T09:36:15.719Z,10.20
2018-04-27T09:38:41.939Z,10.03
2018-04-27T09:41:08.239Z,17.73
2018-04-27T09:43:35.177Z,9.27
2018-04-27T09:46:01.392Z,10.67
2018-04-27T09:48:27.695Z,12.63
2018-04-27T09:50:54.667Z,16.90
2018-04-27T09:53:20.906Z,9.47
2018-04-27T09:55:47.107Z,14.27
2018-04-27T09:58:13.371Z,11.40
2018-04-27T10:00:39.603Z,7.83
2018-04-27T10:03:05.836Z,8.90
2018-04-27T10:05:32.050Z,7.93
2018-04-27T10:07:58.274Z,8.13
2018-04-27T10:10:24.475Z,11.60
2018-04-27T10:12:51.448Z,7.27
2018-04-27T10:15:17.650Z,14.90
2018-04-27T10:17:44.618Z,10.30
2018-04-27T10:20:10.818Z,6.90
2018-04-27T10:22:37.049Z,14.10
2018-04-27T10:25:04.000Z,8.80
2018-04-27T10:27:30.966Z,7.47
2018-04-27T10:29:57.171Z,9.07
2018-04-27T10:32:23.412Z,9.63
2018-04-27T10:34:50.359Z,14.10
2018-04-27T10:37:17.327Z,14.83
2018-04-27T10:39:43.546Z,7.10
2018-04-27T10:42:09.902Z,10.70
2018-04-27T10:44:36.107Z,10.90
2018-04-27T10:47:02.354Z,8.87
2018-04-27T10:49:28.567Z,7.20
2018-04-27T10:51:54.804Z,4.50
2018-04-27T10:54:21.000Z,9.73
2018-04-27T10:56:47.975Z,6.40
2018-04-27T10:59:14.192Z,5.63
2018-04-27T11:01:41.171Z,6.10
2018-04-27T11:04:07.403Z,7.20
2018-04-27T11:06:33.647Z,8.27
2018-04-27T11:08:59.863Z,5.37
2018-04-27T11:11:26.096Z,7.23
2018-04-27T11:13:52.295Z,8.87
2018-04-27T11:16:18.559Z,8.93
2018-04-27T11:18:44.787Z,5.57
2018-04-27T11:21:11.019Z,12.17
2018-04-27T11:23:37.231Z,8.40
2018-04-27T11:26:03.536Z,8.77
2018-04-27T11:28:29.687Z,6.90
2018-04-27T11:30:55.967Z,6.70
2018-04-27T11:33:22.198Z,5.57
2018-04-27T11:35:48.448Z,6.83
2018-04-27T11:38:15.395Z,10.80
2018-04-27T11:40:42.363Z,6.67
2018-04-27T11:43:08.563Z,5.30
2018-04-27T11:45:35.543Z,9.10
2018-04-27T11:48:01.801Z,8.90
2018-04-27T11:50:28.870Z,7.60
2018-04-27T11:52:56.563Z,4.80
2018-04-27T11:55:29.758Z,5.33
2018-04-27T11:57:55.998Z,8.50
2018-04-27T12:00:22.273Z,5.00
2018-04-27T12:02:48.479Z,4.20
2018-04-27T12:05:14.754Z,4.60
2018-04-27T12:07:41.775Z,5.23
2018-04-27T12:10:08.007Z,8.57
2018-04-27T12:12:34.216Z,3.40
2018-04-27T12:15:00.472Z,7.67
2018-04-27T12:17:26.731Z,10.67
2018-04-27T12:19:53.686Z,6.73
2018-04-27T12:22:19.918Z,4.53
2018-04-27T12:24:46.145Z,4.30
2018-04-27T12:27:12.334Z,5.07
2018-04-27T12:29:40.035Z,6.17
2018-04-27T12:32:06.238Z,5.20
2018-04-27T12:34:32.459Z,8.80
2018-04-27T12:36:58.675Z,3.90
2018-04-27T12:39:24.911Z,5.27
2018-04-27T12:41:51.123Z,4.13
2018-04-27T12:44:17.475Z,4.37
2018-04-27T12:46:43.699Z,8.80
2018-04-27T12:49:09.971Z,8.20
2018-04-27T12:51:36.244Z,15.53
2018-04-27T12:54:02.506Z,5.10
2018-04-27T12:56:28.727Z,3.00
2018-04-27T12:58:54.955Z,2.87
2018-04-27T13:01:21.165Z,4.60
2018-04-27T13:03:47.382Z,8.00
2018-04-27T13:06:13.587Z,5.00
2018-04-27T13:08:39.814Z,5.80
2018-04-27T13:11:06.015Z,5.37
2018-04-27T13:13:33.008Z,4.40
2018-04-27T13:15:59.218Z,3.90
2018-04-27T13:18:25.467Z,5.63
2018-04-27T13:20:51.662Z,4.90
2018-04-27T13:23:18.947Z,7.30
2018-04-27T13:25:45.138Z,4.10
2018-04-27T13:28:12.079Z,6.33
2018-04-27T13:30:39.060Z,7.93
2018-04-27T13:33:05.299Z,8.63
2018-04-27T13:35:31.495Z,5.10
2018-04-27T13:37:58.493Z,4.37
2018-04-27T13:40:24.703Z,4.07
2018-04-27T13:42:50.913Z,3.07
2018-04-27T13:45:17.149Z,5.73
2018-04-27T13:47:43.414Z,10.20
2018-04-27T13:50:09.619Z,4.90
2018-04-27T13:52:35.876Z,4.83
2018-04-27T13:55:02.079Z,9.43
2018-04-27T13:57:28.303Z,5.43
2018-04-27T13:59:54.531Z,3.77
2018-04-27T14:02:20.743Z,5.87
2018-04-27T14:04:46.967Z,3.70
2018-04-27T14:07:13.181Z,4.93
2018-04-27T14:09:40.157Z,6.37
2018-04-27T14:12:06.367Z,5.57
2018-04-27T14:14:33.354Z,9.57
2018-04-27T14:16:59.556Z,3.47
2018-04-27T14:19:25.778Z,7.90
2018-04-27T14:21:51.985Z,8.87
2018-04-27T14:24:25.833Z,6.80
2018-04-27T14:26:52.092Z,5.20
2018-04-27T14:29:18.315Z,8.43
2018-04-27T14:31:44.511Z,3.90
2018-04-27T14:34:10.726Z,5.40
2018-04-27T14:36:36.923Z,6.37
2018-04-27T14:39:03.206Z,3.97
2018-04-27T14:41:29.399Z,4.70
2018-04-27T14:43:56.367Z,9.17
2018-04-27T14:46:29.735Z,10.33
2018-04-27T14:48:56.725Z,6.40
2018-04-27T14:51:23.751Z,5.77
2018-04-27T14:53:49.970Z,4.00
2018-04-27T14:56:16.927Z,6.30
2018-04-27T14:58:43.191Z,13.00
2018-04-27T15:01:09.399Z,8.10
2018-04-27T15:03:35.615Z,5.80
2018-04-27T15:06:01.954Z,6.20
2018-04-27T15:08:28.140Z,8.40
2018-04-27T15:10:54.371Z,7.67
2018-04-27T15:13:20.628Z,5.40
2018-04-27T15:15:47.567Z,5.40
2018-04-27T15:18:14.522Z,5.20
2018-04-27T15:20:41.488Z,5.40
2018-04-27T15:23:07.675Z,6.00
2018-04-27T15:25:33.903Z,7.40
2018-04-27T15:28:00.104Z,7.80
2018-04-27T15:30:26.338Z,6.90
2018-04-27T15:32:52.526Z,9.47
2018-04-27T15:35:18.779Z,4.30
2018-04-27T15:37:44.992Z,5.10
2018-04-27T15:40:11.226Z,6.47
2018-04-27T15:42:37.434Z,4.73
2018-04-27T15:45:03.719Z,3.40
2018-04-27T15:47:29.963Z,10.20
2018-04-27T15:49:56.210Z,8.00
2018-04-27T15:52:23.169Z,5.00
2018-04-27T15:54:49.391Z,4.97
2018-04-27T15:57:16.322Z,7.43
2018-04-27T15:59:43.283Z,7.57
2018-04-27T16:02:09.501Z,8.20
2018-04-27T16:04:36.479Z,5.30
2018-04-27T16:07:02.698Z,5.33
2018-04-27T16:09:28.989Z,5.73
2018-04-27T16:11:55.482Z,9.10
2018-04-27T16:14:21.726Z,10.83
2018-04-27T16:16:47.932Z,8.00
2018-04-27T16:19:14.167Z,8.63
2018-04-27T16:21:47.698Z,9.87
2018-04-27T16:24:14.948Z,10.27
2018-04-27T16:26:41.197Z,7.47
2018-04-27T16:29:07.440Z,10.20
2018-04-27T16:31:34.383Z,18.03
2018-04-27T16:34:01.356Z,5.70
2018-04-27T16:36:27.565Z,8.70
2018-04-27T16:38:54.650Z,9.70
2018-04-27T16:41:20.885Z,6.97
2018-04-27T16:43:47.102Z,13.60
2018-04-27T16:46:13.298Z,11.00
2018-04-27T16:48:40.399Z,5.67
2018-04-27T16:51:06.598Z,7.60
2018-04-27T16:53:32.795Z,10.63
2018-04-27T16:55:59.047Z,5.80
2018-04-27T16:58:26.003Z,7.60
2018-04-27T17:00:52.238Z,10.00
2018-04-27T17:03:18.440Z,4.83
2018-04-27T17:05:45.448Z,5.37
2018-04-27T17:08:11.665Z,7.33
2018-04-27T17:10:37.934Z,7.93
2018-04-27T17:13:04.142Z,6.03
2018-04-27T17:15:30.387Z,9.40
2018-04-27T17:17:56.618Z,9.97
2018-04-27T17:20:22.858Z,6.20
2018-04-27T17:22:49.811Z,6.70
2018-04-27T17:25:16.795Z,5.30
2018-04-27T17:27:43.006Z,11.97
2018-04-27T17:30:09.242Z,6.60
2018-04-27T17:32:35.490Z,10.43
2018-04-27T17:35:01.742Z,7.57
2018-04-27T17:37:27.963Z,7.73
2018-04-27T17:39:54.175Z,12.70
2018-04-27T17:42:20.424Z,9.83
2018-04-27T17:44:46.708Z,14.20
2018-04-27T17:47:12.911Z,5.23
2018-04-27T17:49:39.123Z,11.40
2018-04-27T17:52:05.371Z,10.93
2018-04-27T17:54:31.574Z,10.37
2018-04-27T17:56:58.082Z,12.40
2018-04-27T17:59:24.285Z,10.00
2018-04-27T18:01:50.535Z,13.00
2018-04-27T18:04:16.780Z,8.73
2018-04-27T18:06:43.024Z,6.20
2018-04-27T18:09:09.227Z,8.63
2018-04-27T18:11:35.582Z,7.23
2018-04-27T18:14:01.708Z,8.10
2018-04-27T18:16:27.963Z,7.03
2018-04-27T18:18:54.451Z,6.20
2018-04-27T18:21:20.676Z,9.30
2018-04-27T18:23:46.917Z,6.60
2018-04-27T18:26:13.179Z,4.80
2018-04-27T18:28:39.411Z,6.57
2018-04-27T18:31:05.598Z,9.57
2018-04-27T18:33:31.814Z,9.20
2018-04-27T18:35:58.011Z,8.80
2018-04-27T18:38:24.984Z,11.50
2018-04-27T18:40:51.198Z,9.33
2018-04-27T18:43:18.190Z,6.20
2018-04-27T18:45:44.427Z,7.30
2018-04-27T18:48:10.679Z,6.30
2018-04-27T18:50:36.981Z,5.83
2018-04-27T18:53:03.247Z,5.93
2018-04-27T18:55:30.220Z,10.40
2018-04-27T18:57:56.486Z,10.37
2018-04-27T19:00:29.734Z,11.67
2018-04-27T19:02:56.700Z,7.10
2018-04-27T19:05:22.922Z,7.33
2018-04-27T19:07:49.183Z,9.13
2018-04-27T19:10:15.387Z,11.30
2018-04-27T19:12:41.646Z,8.60
2018-04-27T19:15:07.862Z,7.30
2018-04-27T19:17:34.120Z,6.37
2018-04-27T19:20:00.448Z,6.67
2018-04-27T19:22:27.382Z,8.00
2018-04-27T19:24:53.620Z,8.80
2018-04-27T19:27:19.874Z,9.73
2018-04-27T19:29:46.831Z,10.03
2018-04-27T19:32:13.843Z,5.70
2018-04-27T19:34:40.039Z,11.13
2018-04-27T19:37:06.278Z,8.20
2018-04-27T19:39:32.498Z,6.80
2018-04-27T19:41:58.703Z,7.47
2018-04-27T19:44:25.679Z,10.13
2018-04-27T19:46:51.879Z,7.60
2018-04-27T19:49:18.846Z,12.53
2018-04-27T19:51:45.095Z,10.23
2018-04-27T19:54:11.390Z,10.93
2018-04-27T19:56:37.655Z,7.57
2018-04-27T19:59:03.937Z,8.43
2018-04-27T20:01:30.903Z,10.63
2018-04-27T20:03:57.126Z,11.10
2018-04-27T20:06:24.100Z,9.10
2018-04-27T20:08:50.407Z,8.97
2018-04-27T20:11:16.779Z,9.17
2018-04-27T20:13:42.951Z,7.23
2018-04-27T20:19:01.721Z,10.93
2018-04-27T20:21:28.719Z,11.47
2018-04-27T20:23:54.979Z,5.03
2018-04-27T20:26:21.260Z,7.33
2018-04-27T20:28:49.423Z,12.30
2018-04-27T20:31:15.651Z,10.20
2018-04-27T20:33:41.936Z,8.37
2018-04-27T20:36:08.216Z,10.33
2018-04-27T20:38:34.470Z,6.67
2018-04-27T20:41:18.466Z,8.50
2018-04-27T20:43:45.470Z,9.87
2018-04-27T20:46:11.715Z,8.33
2018-04-27T20:48:38.327Z,15.10
2018-04-27T20:51:08.453Z,9.43
2018-04-27T20:53:41.679Z,7.33
2018-04-27T20:56:08.671Z,10.10
2018-04-27T20:58:34.910Z,9.53
2018-04-27T21:01:01.158Z,12.90
2018-04-27T21:03:27.434Z,8.30
2018-04-27T21:05:54.438Z,12.63
2018-04-27T21:08:20.702Z,10.77
2018-04-27T21:10:46.990Z,8.43
2018-04-27T21:13:13.287Z,13.57
2018-04-27T21:15:40.299Z,11.90
2018-04-27T21:18:07.519Z,7.77
2018-04-27T21:20:33.758Z,11.93
2018-04-27T21:23:00.012Z,9.43
2018-04-27T21:25:32.155Z,8.23
2018-04-27T21:27:58.432Z,14.07
2018-04-27T21:30:25.454Z,8.80
2018-04-27T21:32:52.466Z,9.07
2018-04-27T21:35:26.887Z,10.90
2018-04-27T21:37:53.169Z,10.43
2018-04-27T21:40:19.467Z,8.80
2018-04-27T21:42:45.730Z,22.10
2018-04-27T21:45:13.487Z,13.60
2018-04-27T21:47:40.559Z,10.87
2018-04-27T21:50:08.415Z,17.03
2018-04-27T21:52:35.418Z,7.70
2018-04-27T21:55:01.651Z,13.53
2018-04-27T21:57:28.752Z,11.07
2018-04-27T22:00:04.522Z,15.40
2018-04-27T22:05:42.407Z,11.13
2018-04-27T22:08:08.667Z,9.90
2018-04-27T22:10:34.907Z,14.30
2018-04-27T22:13:01.178Z,12.30
2018-04-27T22:15:27.410Z,10.10
2018-04-27T22:17:53.658Z,19.13
2018-04-27T22:20:19.892Z,13.97
2018-04-27T22:22:46.898Z,11.60
2018-04-27T22:25:13.138Z,14.77
2018-04-27T22:27:39.419Z,14.10
2018-04-27T22:30:07.378Z,8.60
2018-04-27T22:32:34.379Z,13.97
2018-04-27T22:35:00.617Z,11.87
2018-04-27T22:37:26.870Z,10.80
2018-04-27T22:39:53.128Z,9.47
2018-04-27T22:42:20.212Z,12.93
2018-04-27T22:44:53.415Z,13.90
2018-04-27T22:47:19.667Z,14.10
2018-04-27T22:49:45.947Z,10.23
2018-04-27T22:52:12.499Z,12.73
2018-04-27T22:54:42.510Z,13.60
2018-04-27T22:57:20.927Z,13.07
2018-04-27T22:59:48.078Z,12.43
2018-04-27T23:02:17.255Z,12.67
2018-04-27T23:04:43.487Z,11.30
2018-04-27T23:07:16.995Z,10.40
2018-04-27T23:09:43.226Z,12.23
2018-04-27T23:12:09.533Z,11.23
2018-04-27T23:14:36.515Z,15.53
2018-04-27T23:17:12.971Z,12.50
2018-04-27T23:19:40.038Z,11.50
2018-04-27T23:22:28.295Z,11.00
2018-04-27T23:24:56.451Z,12.53
2018-04-27T23:27:22.759Z,11.80
2018-04-27T23:29:49.024Z,11.97
2018-04-27T23:32:15.300Z,10.63
2018-04-27T23:34:42.263Z,19.30
2018-04-27T23:37:08.523Z,13.90
2018-04-27T23:39:34.760Z,12.37
2018-04-27T23:42:00.995Z,12.93
2018-04-27T23:44:27.232Z,15.30
2018-04-27T23:46:53.482Z,12.43
2018-04-27T23:49:19.722Z,12.23
2018-04-27T23:51:47.725Z,10.03
2018-04-27T23:54:13.967Z,18.63
2018-04-27T23:56:41.155Z,11.40
2018-04-27T23:59:07.415Z,13.73
